sensor_id;sensor_type;location;lat;lon;timestamp;pressure;altitude;pressure_sealevel;temperature;humidity
40155;BME280;25875;48.202;16.334;2024-03-07T00:02:22;99390.34;;;7.61;59.65
40155;BME280;25875;48.202;16.334;2024-03-07T00:04:49;99418.78;;;7.75;60.04
40155;BME280;25875;48.202;16.334;2024-03-07T00:07:17;99420.50;;;7.76;60.02
40155;BME280;25875;48.202;16.334;2024-03-07T00:09:43;99427.56;;;7.76;60.45
40155;BME280;25875;48.202;16.334;2024-03-07T00:12:11;99403.22;;;7.69;60.52
40155;BME280;25875;48.202;16.334;2024-03-07T00:14:39;99416.22;;;7.74;60.78
40155;BME280;25875;48.202;16.334;2024-03-07T00:17:06;99418.97;;;7.70;61.14
40155;BME280;25875;48.202;16.334;2024-03-07T00:19:33;99426.69;;;7.75;61.01
40155;BME280;25875;48.202;16.334;2024-03-07T00:21:59;99418.78;;;7.75;61.41
40155;BME280;25875;48.202;16.334;2024-03-07T00:24:26;99416.94;;;7.77;61.90
40155;BME280;25875;48.202;16.334;2024-03-07T00:26:53;99417.13;;;7.73;61.77
40155;BME280;25875;48.202;16.334;2024-03-07T00:29:20;99413.72;;;7.70;62.18
40155;BME280;25875;48.202;16.334;2024-03-07T00:31:49;99419.25;;;7.64;62.25
40155;BME280;25875;48.202;16.334;2024-03-07T00:34:16;99416.59;;;7.64;62.10
40155;BME280;25875;48.202;16.334;2024-03-07T00:36:44;99416.59;;;7.64;62.10
40155;BME280;25875;48.202;16.334;2024-03-07T00:39:11;99307.41;;;7.06;61.76
40155;BME280;25875;48.202;16.334;2024-03-07T00:41:38;99404.41;;;7.62;61.71
40155;BME280;25875;48.202;16.334;2024-03-07T00:44:05;99402.81;;;7.58;61.63
40155;BME280;25875;48.202;16.334;2024-03-07T00:46:34;99405.66;;;7.53;61.55
40155;BME280;25875;48.202;16.334;2024-03-07T00:49:02;99399.50;;;7.53;61.58
40155;BME280;25875;48.202;16.334;2024-03-07T00:51:29;99394.25;;;7.53;61.73
40155;BME280;25875;48.202;16.334;2024-03-07T00:53:56;99265.72;;;6.73;61.93
40155;BME280;25875;48.202;16.334;2024-03-07T00:56:23;99236.38;;;6.61;61.63
40155;BME280;25875;48.202;16.334;2024-03-07T00:58:50;99398.06;;;7.46;61.57
40155;BME280;25875;48.202;16.334;2024-03-07T01:01:17;99392.78;;;7.46;61.58
40155;BME280;25875;48.202;16.334;2024-03-07T01:03:44;99394.81;;;7.39;61.68
40155;BME280;25875;48.202;16.334;2024-03-07T01:06:12;99399.03;;;7.43;61.31
40155;BME280;25875;48.202;16.334;2024-03-07T01:08:39;99395.09;;;7.31;61.62
40155;BME280;25875;48.202;16.334;2024-03-07T01:11:06;99392.38;;;7.34;61.51
40155;BME280;25875;48.202;16.334;2024-03-07T01:13:35;99393.31;;;7.32;61.52
40155;BME280;25875;48.202;16.334;2024-03-07T01:16:02;99394.88;;;7.37;61.28
40155;BME280;25875;48.202;16.334;2024-03-07T01:18:29;99391.59;;;7.31;61.37
40155;BME280;25875;48.202;16.334;2024-03-07T01:20:57;99390.69;;;7.32;61.51
40155;BME280;25875;48.202;16.334;2024-03-07T01:23:25;99384.34;;;7.37;60.97
40155;BME280;25875;48.202;16.334;2024-03-07T01:25:54;99389.66;;;7.36;61.26
40155;BME280;25875;48.202;16.334;2024-03-07T01:28:22;99393.31;;;7.32;61.11
40155;BME280;25875;48.202;16.334;2024-03-07T01:30:48;99384.53;;;7.33;61.24
40155;BME280;25875;48.202;16.334;2024-03-07T01:33:15;99391.25;;;7.40;61.15
40155;BME280;25875;48.202;16.334;2024-03-07T01:35:42;99389.59;;;7.37;60.98
40155;BME280;25875;48.202;16.334;2024-03-07T01:38:08;99388.69;;;7.38;61.17
40155;BME280;25875;48.202;16.334;2024-03-07T01:40:37;99387.88;;;7.36;61.21
40155;BME280;25875;48.202;16.334;2024-03-07T01:43:04;99386.78;;;7.42;61.06
40155;BME280;25875;48.202;16.334;2024-03-07T01:45:31;99389.28;;;7.45;61.05
40155;BME280;25875;48.202;16.334;2024-03-07T01:47:59;99365.19;;;7.32;60.99
40155;BME280;25875;48.202;16.334;2024-03-07T01:50:25;99388.56;;;7.42;61.40
40155;BME280;25875;48.202;16.334;2024-03-07T01:52:53;99357.66;;;7.23;61.14
40155;BME280;25875;48.202;16.334;2024-03-07T01:55:21;99360.97;;;7.28;61.26
40155;BME280;25875;48.202;16.334;2024-03-07T01:57:50;99378.06;;;7.40;61.47
40155;BME280;25875;48.202;16.334;2024-03-07T02:00:17;99377.88;;;7.45;60.96
40155;BME280;25875;48.202;16.334;2024-03-07T02:02:44;99382.22;;;7.46;60.96
40155;BME280;25875;48.202;16.334;2024-03-07T02:05:12;99352.75;;;7.36;60.89
40155;BME280;25875;48.202;16.334;2024-03-07T02:07:39;99357.03;;;7.38;60.95
40155;BME280;25875;48.202;16.334;2024-03-07T02:10:06;99380.66;;;7.42;61.21
40155;BME280;25875;48.202;16.334;2024-03-07T02:12:34;99379.00;;;7.39;61.15
40155;BME280;25875;48.202;16.334;2024-03-07T02:15:03;99374.38;;;7.44;61.04
40155;BME280;25875;48.202;16.334;2024-03-07T02:17:30;99372.88;;;7.38;61.04
40155;BME280;25875;48.202;16.334;2024-03-07T02:19:57;99367.72;;;7.35;61.49
40155;BME280;25875;48.202;16.334;2024-03-07T02:22:25;99366.88;;;7.35;61.48
40155;BME280;25875;48.202;16.334;2024-03-07T02:24:52;99370.34;;;7.35;61.59
40155;BME280;25875;48.202;16.334;2024-03-07T02:27:19;99365.94;;;7.36;61.28
40155;BME280;25875;48.202;16.334;2024-03-07T02:29:46;99367.72;;;7.35;61.62
40155;BME280;25875;48.202;16.334;2024-03-07T02:32:13;99366.88;;;7.35;61.39
40155;BME280;25875;48.202;16.334;2024-03-07T02:34:39;99361.75;;;7.30;61.13
40155;BME280;25875;48.202;16.334;2024-03-07T02:37:06;99359.97;;;7.31;60.85
40155;BME280;25875;48.202;16.334;2024-03-07T02:39:35;99366.28;;;7.27;61.05
40155;BME280;25875;48.202;16.334;2024-03-07T02:42:02;99363.84;;;7.22;61.07
40155;BME280;25875;48.202;16.334;2024-03-07T02:44:29;99368.44;;;7.17;61.15
40155;BME280;25875;48.202;16.334;2024-03-07T02:46:57;99351.16;;;7.10;61.25
40155;BME280;25875;48.202;16.334;2024-03-07T02:49:23;99364.75;;;7.21;60.89
40155;BME280;25875;48.202;16.334;2024-03-07T02:51:49;99369.19;;;7.21;60.85
40155;BME280;25875;48.202;16.334;2024-03-07T02:54:16;99369.19;;;7.21;60.94
40155;BME280;25875;48.202;16.334;2024-03-07T02:56:44;99363.78;;;7.24;60.79
40155;BME280;25875;48.202;16.334;2024-03-07T02:59:11;99374.31;;;7.24;60.54
40155;BME280;25875;48.202;16.334;2024-03-07T03:01:38;99368.31;;;7.20;60.69
40155;BME280;25875;48.202;16.334;2024-03-07T03:04:05;99336.34;;;7.07;60.36
40155;BME280;25875;48.202;16.334;2024-03-07T03:06:33;99379.78;;;7.19;60.28
40155;BME280;25875;48.202;16.334;2024-03-07T03:09:00;99369.38;;;7.16;60.46
40155;BME280;25875;48.202;16.334;2024-03-07T03:11:27;99372.94;;;7.15;60.40
40155;BME280;25875;48.202;16.334;2024-03-07T03:13:55;99371.09;;;7.17;60.15
40155;BME280;25875;48.202;16.334;2024-03-07T03:16:21;99377.22;;;7.18;60.08
40155;BME280;25875;48.202;16.334;2024-03-07T03:18:48;99374.50;;;7.19;60.15
40155;BME280;25875;48.202;16.334;2024-03-07T03:21:15;99366.66;;;7.18;60.26
40155;BME280;25875;48.202;16.334;2024-03-07T03:23:42;99371.81;;;7.21;60.09
40155;BME280;25875;48.202;16.334;2024-03-07T03:26:09;99376.66;;;7.10;59.80
40155;BME280;25875;48.202;16.334;2024-03-07T03:28:36;99368.69;;;7.11;59.76
40155;BME280;25875;48.202;16.334;2024-03-07T03:31:06;99372.31;;;7.09;59.90
40155;BME280;25875;48.202;16.334;2024-03-07T03:33:34;99230.75;;;6.26;59.61
40155;BME280;25875;48.202;16.334;2024-03-07T03:36:00;99369.38;;;7.16;59.67
40155;BME280;25875;48.202;16.334;2024-03-07T03:38:27;99373.25;;;7.07;59.57
40155;BME280;25875;48.202;16.334;2024-03-07T03:40:54;99344.13;;;6.89;59.94
40155;BME280;25875;48.202;16.334;2024-03-07T03:43:21;99378.56;;;7.06;59.63
40155;BME280;25875;48.202;16.334;2024-03-07T03:45:48;99375.19;;;7.02;59.67
40155;BME280;25875;48.202;16.334;2024-03-07T03:48:16;99378.94;;;6.97;59.89
40155;BME280;25875;48.202;16.334;2024-03-07T03:50:43;99382.97;;;7.05;59.57
40155;BME280;25875;48.202;16.334;2024-03-07T03:53:11;99368.69;;;7.11;59.28
40155;BME280;25875;48.202;16.334;2024-03-07T03:55:38;99334.53;;;6.88;59.35
40155;BME280;25875;48.202;16.334;2024-03-07T03:58:04;99347.88;;;6.83;59.52
40155;BME280;25875;48.202;16.334;2024-03-07T04:00:31;99339.78;;;6.88;59.15
40155;BME280;25875;48.202;16.334;2024-03-07T04:02:58;99362.75;;;7.06;59.02
40155;BME280;25875;48.202;16.334;2024-03-07T04:05:26;99316.00;;;6.67;59.16
40155;BME280;25875;48.202;16.334;2024-03-07T04:07:53;99362.28;;;6.96;59.10
40155;BME280;25875;48.202;16.334;2024-03-07T04:10:21;99376.50;;;6.92;59.09
40155;BME280;25875;48.202;16.334;2024-03-07T04:12:48;99365.84;;;6.95;59.14
40155;BME280;25875;48.202;16.334;2024-03-07T04:15:15;99372.31;;;6.87;59.33
40155;BME280;25875;48.202;16.334;2024-03-07T04:17:42;99373.91;;;6.91;59.20
40155;BME280;25875;48.202;16.334;2024-03-07T04:20:10;99373.91;;;6.91;59.12
40155;BME280;25875;48.202;16.334;2024-03-07T04:22:40;99373.00;;;6.92;59.08
40155;BME280;25875;48.202;16.334;2024-03-07T04:25:07;99361.66;;;6.90;59.12
40155;BME280;25875;48.202;16.334;2024-03-07T04:27:35;99371.28;;;6.91;59.03
40155;BME280;25875;48.202;16.334;2024-03-07T04:30:06;99366.69;;;6.96;59.03
40155;BME280;25875;48.202;16.334;2024-03-07T04:32:35;99376.50;;;6.92;59.24
40155;BME280;25875;48.202;16.334;2024-03-07T04:35:02;99378.38;;;6.89;59.45
40155;BME280;25875;48.202;16.334;2024-03-07T04:37:33;99374.66;;;6.94;59.16
40155;BME280;25875;48.202;16.334;2024-03-07T04:40:04;99359.41;;;6.81;59.12
40155;BME280;25875;48.202;16.334;2024-03-07T04:42:40;99373.00;;;6.92;59.14
40155;BME280;25875;48.202;16.334;2024-03-07T04:45:08;99381.09;;;6.87;59.03
40155;BME280;25875;48.202;16.334;2024-03-07T04:47:38;99348.94;;;6.78;59.05
40155;BME280;25875;48.202;16.334;2024-03-07T04:50:05;99376.63;;;6.89;58.98
40155;BME280;25875;48.202;16.334;2024-03-07T04:52:32;99374.16;;;6.85;58.83
40155;BME280;25875;48.202;16.334;2024-03-07T04:54:59;99378.63;;;6.83;59.05
40155;BME280;25875;48.202;16.334;2024-03-07T04:57:27;99382.00;;;6.86;59.09
40155;BME280;25875;48.202;16.334;2024-03-07T04:59:54;99385.25;;;6.93;58.67
40155;BME280;25875;48.202;16.334;2024-03-07T05:02:21;99328.66;;;6.58;59.00
40155;BME280;25875;48.202;16.334;2024-03-07T05:04:48;99383.66;;;6.89;59.16
40155;BME280;25875;48.202;16.334;2024-03-07T05:07:17;99382.63;;;6.93;58.96
40155;BME280;25875;48.202;16.334;2024-03-07T05:09:44;99388.13;;;6.87;59.09
40155;BME280;25875;48.202;16.334;2024-03-07T05:12:11;99386.47;;;6.84;59.19
40155;BME280;25875;48.202;16.334;2024-03-07T05:14:39;99394.19;;;6.89;59.19
40155;BME280;25875;48.202;16.334;2024-03-07T05:17:05;99386.41;;;6.86;59.22
40155;BME280;25875;48.202;16.334;2024-03-07T05:19:34;99390.75;;;6.87;59.12
40155;BME280;25875;48.202;16.334;2024-03-07T05:22:01;99400.50;;;6.85;59.37
40155;BME280;25875;48.202;16.334;2024-03-07T05:24:30;99366.84;;;6.69;59.21
40155;BME280;25875;48.202;16.334;2024-03-07T05:26:58;99401.25;;;6.88;59.26
40155;BME280;25875;48.202;16.334;2024-03-07T05:29:24;99402.78;;;6.94;59.17
40155;BME280;25875;48.202;16.334;2024-03-07T05:31:53;99397.63;;;6.91;59.24
40155;BME280;25875;48.202;16.334;2024-03-07T05:34:20;99403.88;;;6.88;59.43
40155;BME280;25875;48.202;16.334;2024-03-07T05:36:48;99402.50;;;6.78;59.60
40155;BME280;25875;48.202;16.334;2024-03-07T05:39:16;99316.88;;;6.23;58.93
40155;BME280;25875;48.202;16.334;2024-03-07T05:41:44;99409.44;;;6.81;59.07
40155;BME280;25875;48.202;16.334;2024-03-07T05:44:11;99286.63;;;6.11;58.71
40155;BME280;25875;48.202;16.334;2024-03-07T05:46:38;99408.72;;;6.75;58.45
40155;BME280;25875;48.202;16.334;2024-03-07T05:49:12;99375.16;;;6.59;58.49
40155;BME280;25875;48.202;16.334;2024-03-07T05:51:39;99390.84;;;6.62;58.21
40155;BME280;25875;48.202;16.334;2024-03-07T05:54:10;99410.56;;;6.73;58.13
40155;BME280;25875;48.202;16.334;2024-03-07T05:56:38;99386.66;;;6.56;58.14
40155;BME280;25875;48.202;16.334;2024-03-07T05:59:05;99414.00;;;6.75;58.05
40155;BME280;25875;48.202;16.334;2024-03-07T06:01:32;99316.97;;;6.20;57.79
40155;BME280;25875;48.202;16.334;2024-03-07T06:04:00;99414.06;;;6.74;57.65
40155;BME280;25875;48.202;16.334;2024-03-07T06:06:28;99414.81;;;6.78;57.59
40155;BME280;25875;48.202;16.334;2024-03-07T06:08:57;99389.41;;;6.53;57.73
40155;BME280;25875;48.202;16.334;2024-03-07T06:11:24;99419.22;;;6.77;57.80
40155;BME280;25875;48.202;16.334;2024-03-07T06:13:51;99418.28;;;6.78;57.67
40155;BME280;25875;48.202;16.334;2024-03-07T06:16:17;99417.78;;;6.68;57.61
40155;BME280;25875;48.202;16.334;2024-03-07T06:18:45;99415.97;;;6.70;57.70
40155;BME280;25875;48.202;16.334;2024-03-07T06:21:12;99419.56;;;6.68;57.41
40155;BME280;25875;48.202;16.334;2024-03-07T06:23:41;99418.72;;;6.67;57.48
40155;BME280;25875;48.202;16.334;2024-03-07T06:26:13;99426.09;;;6.58;58.00
40155;BME280;25875;48.202;16.334;2024-03-07T06:28:42;99426.78;;;6.63;57.80
40155;BME280;25875;48.202;16.334;2024-03-07T06:31:10;99422.50;;;6.60;57.90
40155;BME280;25875;48.202;16.334;2024-03-07T06:33:37;99434.50;;;6.67;57.90
40155;BME280;25875;48.202;16.334;2024-03-07T06:36:04;99425.75;;;6.67;57.92
40155;BME280;25875;48.202;16.334;2024-03-07T06:38:31;99430.09;;;6.68;57.81
40155;BME280;25875;48.202;16.334;2024-03-07T06:40:59;99438.97;;;6.65;57.94
40155;BME280;25875;48.202;16.334;2024-03-07T06:43:26;99438.22;;;6.62;57.88
40155;BME280;25875;48.202;16.334;2024-03-07T06:45:52;99386.78;;;6.30;57.77
40155;BME280;25875;48.202;16.334;2024-03-07T06:48:20;99436.34;;;6.65;57.81
40155;BME280;25875;48.202;16.334;2024-03-07T06:50:46;99435.66;;;6.60;57.85
40155;BME280;25875;48.202;16.334;2024-03-07T06:53:13;99365.84;;;6.27;57.63
40155;BME280;25875;48.202;16.334;2024-03-07T06:55:39;99431.06;;;6.65;57.39
40155;BME280;25875;48.202;16.334;2024-03-07T06:58:07;99441.38;;;6.71;57.44
40155;BME280;25875;48.202;16.334;2024-03-07T07:00:35;99441.72;;;6.62;57.41
40155;BME280;25875;48.202;16.334;2024-03-07T07:03:02;99448.47;;;6.46;57.68
40155;BME280;25875;48.202;16.334;2024-03-07T07:05:30;99428.56;;;6.39;57.71
40155;BME280;25875;48.202;16.334;2024-03-07T07:07:57;99448.31;;;6.51;57.96
40155;BME280;25875;48.202;16.334;2024-03-07T07:10:23;99423.25;;;6.40;57.65
40155;BME280;25875;48.202;16.334;2024-03-07T07:12:50;99444.59;;;6.56;57.61
40155;BME280;25875;48.202;16.334;2024-03-07T07:15:21;99334.88;;;5.87;57.82
40155;BME280;25875;48.202;16.334;2024-03-07T07:17:49;99450.53;;;6.61;57.88
40155;BME280;25875;48.202;16.334;2024-03-07T07:20:16;99450.25;;;6.69;57.89
40155;BME280;25875;48.202;16.334;2024-03-07T07:22:45;99453.81;;;6.68;57.83
40155;BME280;25875;48.202;16.334;2024-03-07T07:25:13;99451.09;;;6.69;57.89
40155;BME280;25875;48.202;16.334;2024-03-07T07:27:43;99448.13;;;6.79;57.71
40155;BME280;25875;48.202;16.334;2024-03-07T07:30:11;99413.50;;;6.66;57.41
40155;BME280;25875;48.202;16.334;2024-03-07T07:32:39;99448.97;;;6.81;56.95
40155;BME280;25875;48.202;16.334;2024-03-07T07:35:07;99454.97;;;6.84;56.90
40155;BME280;25875;48.202;16.334;2024-03-07T07:37:37;99451.47;;;6.84;56.75
40155;BME280;25875;48.202;16.334;2024-03-07T07:40:04;99439.78;;;6.91;56.99
40155;BME280;25875;48.202;16.334;2024-03-07T07:42:33;99435.38;;;6.91;56.61
40155;BME280;25875;48.202;16.334;2024-03-07T07:45:00;99442.53;;;6.88;56.93
40155;BME280;25875;48.202;16.334;2024-03-07T07:47:27;99443.16;;;6.94;56.99
40155;BME280;25875;48.202;16.334;2024-03-07T07:49:55;99445.78;;;6.94;56.62
40155;BME280;25875;48.202;16.334;2024-03-07T07:52:22;99445.78;;;6.94;56.01
40155;BME280;25875;48.202;16.334;2024-03-07T07:54:48;99422.56;;;6.82;56.51
40155;BME280;25875;48.202;16.334;2024-03-07T07:57:15;99444.75;;;6.98;56.33
40155;BME280;25875;48.202;16.334;2024-03-07T07:59:42;99449.78;;;7.04;56.45
40155;BME280;25875;48.202;16.334;2024-03-07T08:02:08;99441.75;;;7.07;56.22
40155;BME280;25875;48.202;16.334;2024-03-07T08:04:36;99455.69;;;7.11;56.13
40155;BME280;25875;48.202;16.334;2024-03-07T08:07:04;99453.09;;;7.10;56.01
40155;BME280;25875;48.202;16.334;2024-03-07T08:09:32;99453.03;;;7.11;55.92
40155;BME280;25875;48.202;16.334;2024-03-07T08:11:59;99460.94;;;7.11;55.40
40155;BME280;25875;48.202;16.334;2024-03-07T08:14:27;99448.25;;;7.21;54.96
40155;BME280;25875;48.202;16.334;2024-03-07T08:16:55;99453.41;;;7.24;54.82
40155;BME280;25875;48.202;16.334;2024-03-07T08:19:21;99455.13;;;7.25;54.77
40155;BME280;25875;48.202;16.334;2024-03-07T08:21:48;99455.31;;;7.20;54.79
40155;BME280;25875;48.202;16.334;2024-03-07T08:24:16;99449.13;;;7.21;54.75
40155;BME280;25875;48.202;16.334;2024-03-07T08:26:43;99452.63;;;7.22;54.41
40155;BME280;25875;48.202;16.334;2024-03-07T08:29:12;99462.25;;;7.23;54.32
40155;BME280;25875;48.202;16.334;2024-03-07T08:31:38;99460.34;;;7.26;54.13
40155;BME280;25875;48.202;16.334;2024-03-07T08:34:05;99456.38;;;7.38;53.59
40155;BME280;25875;48.202;16.334;2024-03-07T08:36:32;99450.00;;;7.44;52.87
40155;BME280;25875;48.202;16.334;2024-03-07T08:38:58;99455.03;;;7.50;52.71
40155;BME280;25875;48.202;16.334;2024-03-07T08:41:26;99449.69;;;7.51;52.67
40155;BME280;25875;48.202;16.334;2024-03-07T08:43:53;99447.84;;;7.53;52.52
40155;BME280;25875;48.202;16.334;2024-03-07T08:46:20;99445.81;;;7.60;52.29
40155;BME280;25875;48.202;16.334;2024-03-07T08:48:46;99441.88;;;7.70;52.00
40155;BME280;25875;48.202;16.334;2024-03-07T08:51:15;99448.66;;;7.76;51.73
40155;BME280;25875;48.202;16.334;2024-03-07T08:53:43;99439.75;;;7.78;51.26
40155;BME280;25875;48.202;16.334;2024-03-07T08:56:09;99452.28;;;7.73;50.65
40155;BME280;25875;48.202;16.334;2024-03-07T08:58:37;99410.28;;;7.68;50.91
40155;BME280;25875;48.202;16.334;2024-03-07T09:01:04;99433.91;;;7.92;50.84
40155;BME280;25875;48.202;16.334;2024-03-07T09:03:30;99433.28;;;8.06;50.21
40155;BME280;25875;48.202;16.334;2024-03-07T09:05:58;99429.31;;;8.16;49.96
40155;BME280;25875;48.202;16.334;2024-03-07T09:08:25;99432.59;;;8.41;50.18
40155;BME280;25875;48.202;16.334;2024-03-07T09:10:52;99430.06;;;8.77;49.79
40155;BME280;25875;48.202;16.334;2024-03-07T09:13:20;98977.53;;;6.20;48.60
40155;BME280;25875;48.202;16.334;2024-03-07T09:15:48;99436.91;;;9.00;49.05
40155;BME280;25875;48.202;16.334;2024-03-07T09:18:15;99436.53;;;9.08;48.63
40155;BME280;25875;48.202;16.334;2024-03-07T09:20:42;99395.41;;;8.83;47.63
40155;BME280;25875;48.202;16.334;2024-03-07T09:23:09;99432.88;;;9.10;47.44
40155;BME280;25875;48.202;16.334;2024-03-07T09:25:35;99436.03;;;8.99;47.18
40155;BME280;25875;48.202;16.334;2024-03-07T09:28:02;99434.25;;;9.00;47.54
40155;BME280;25875;48.202;16.334;2024-03-07T09:30:29;99431.16;;;9.09;47.19
40155;BME280;25875;48.202;16.334;2024-03-07T09:32:57;99429.69;;;9.41;47.38
40155;BME280;25875;48.202;16.334;2024-03-07T09:35:24;99345.13;;;9.21;46.52
40155;BME280;25875;48.202;16.334;2024-03-07T09:37:50;99411.78;;;9.98;45.99
40155;BME280;25875;48.202;16.334;2024-03-07T09:40:17;99388.97;;;9.95;44.79
40155;BME280;25875;48.202;16.334;2024-03-07T09:42:50;99416.22;;;10.15;44.74
40155;BME280;25875;48.202;16.334;2024-03-07T09:45:18;99422.88;;;10.55;44.21
40155;BME280;25875;48.202;16.334;2024-03-07T09:47:47;99424.25;;;10.46;43.98
40155;BME280;25875;48.202;16.334;2024-03-07T09:50:18;99420.66;;;10.14;44.09
40155;BME280;25875;48.202;16.334;2024-03-07T09:52:48;99429.13;;;10.21;44.50
40155;BME280;25875;48.202;16.334;2024-03-07T09:55:15;99437.06;;;10.21;44.24
40155;BME280;25875;48.202;16.334;2024-03-07T09:57:42;99438.09;;;10.18;44.25
40155;BME280;25875;48.202;16.334;2024-03-07T10:00:10;99442.84;;;10.12;44.73
40155;BME280;25875;48.202;16.334;2024-03-07T10:02:50;99411.88;;;9.97;44.71
40155;BME280;25875;48.202;16.334;2024-03-07T10:05:19;99343.38;;;9.56;44.58
40155;BME280;25875;48.202;16.334;2024-03-07T10:07:46;99431.00;;;10.19;44.60
40155;BME280;25875;48.202;16.334;2024-03-07T10:10:13;99434.81;;;10.13;44.91
40155;BME280;25875;48.202;16.334;2024-03-07T10:12:41;99435.13;;;10.07;44.49
40155;BME280;25875;48.202;16.334;2024-03-07T10:15:08;99438.88;;;10.03;44.49
40155;BME280;25875;48.202;16.334;2024-03-07T10:17:38;99438.25;;;9.98;44.60
40155;BME280;25875;48.202;16.334;2024-03-07T10:20:08;99429.00;;;9.89;44.93
40155;BME280;25875;48.202;16.334;2024-03-07T10:22:40;99447.84;;;9.83;45.27
40155;BME280;25875;48.202;16.334;2024-03-07T10:25:07;99443.16;;;9.71;45.74
40155;BME280;25875;48.202;16.334;2024-03-07T10:27:36;99281.66;;;8.67;46.19
40155;BME280;25875;48.202;16.334;2024-03-07T10:30:04;99422.00;;;9.54;46.38
40155;BME280;25875;48.202;16.334;2024-03-07T10:32:33;99447.22;;;9.78;46.72
40155;BME280;25875;48.202;16.334;2024-03-07T10:35:00;99387.59;;;9.54;46.60
40155;BME280;25875;48.202;16.334;2024-03-07T10:37:28;99413.75;;;9.77;46.66
40155;BME280;25875;48.202;16.334;2024-03-07T10:39:57;99411.09;;;9.94;46.41
40155;BME280;25875;48.202;16.334;2024-03-07T10:42:28;99424.28;;;10.29;46.02
40155;BME280;25875;48.202;16.334;2024-03-07T10:45:04;99170.00;;;8.81;45.92
40155;BME280;25875;48.202;16.334;2024-03-07T10:47:37;99440.09;;;10.31;45.84
40155;BME280;25875;48.202;16.334;2024-03-07T10:50:09;99321.44;;;9.54;45.55
40155;BME280;25875;48.202;16.334;2024-03-07T10:52:48;99280.00;;;9.18;45.46
40155;BME280;25875;48.202;16.334;2024-03-07T10:55:27;99434.97;;;10.10;45.63
40155;BME280;25875;48.202;16.334;2024-03-07T10:58:02;99435.13;;;10.07;45.75
40155;BME280;25875;48.202;16.334;2024-03-07T11:00:30;99435.13;;;10.07;46.09
40155;BME280;25875;48.202;16.334;2024-03-07T11:03:02;99442.63;;;9.99;46.10
40155;BME280;25875;48.202;16.334;2024-03-07T11:05:33;99444.34;;;9.83;46.49
40155;BME280;25875;48.202;16.334;2024-03-07T11:08:00;99442.47;;;9.68;46.45
40155;BME280;25875;48.202;16.334;2024-03-07T11:10:33;99395.47;;;9.37;46.81
40155;BME280;25875;48.202;16.334;2024-03-07T11:13:01;99406.81;;;9.21;47.21
40155;BME280;25875;48.202;16.334;2024-03-07T11:15:30;99413.88;;;9.21;47.47
40155;BME280;25875;48.202;16.334;2024-03-07T11:17:57;99429.75;;;9.21;47.56
40155;BME280;25875;48.202;16.334;2024-03-07T11:20:25;99453.13;;;9.30;47.83
40155;BME280;25875;48.202;16.334;2024-03-07T11:22:52;99451.47;;;9.27;48.05
40155;BME280;25875;48.202;16.334;2024-03-07T11:25:21;99455.28;;;9.22;48.32
40155;BME280;25875;48.202;16.334;2024-03-07T11:27:55;99454.59;;;9.17;48.31
40155;BME280;25875;48.202;16.334;2024-03-07T11:30:22;99454.41;;;9.03;48.62
40155;BME280;25875;48.202;16.334;2024-03-07T11:32:49;99455.63;;;8.95;48.96
40155;BME280;25875;48.202;16.334;2024-03-07T11:35:19;99389.06;;;8.50;49.02
40155;BME280;25875;48.202;16.334;2024-03-07T11:37:56;99461.34;;;8.86;49.29
40155;BME280;25875;48.202;16.334;2024-03-07T11:40:43;99453.41;;;8.86;49.44
40155;BME280;25875;48.202;16.334;2024-03-07T11:43:11;99515.47;;;8.78;49.56
40155;BME280;25875;48.202;16.334;2024-03-07T11:45:38;99457.75;;;8.68;49.64
40155;BME280;25875;48.202;16.334;2024-03-07T11:48:10;99424.47;;;8.46;49.68
40155;BME280;25875;48.202;16.334;2024-03-07T11:50:38;99453.31;;;8.69;49.72
40155;BME280;25875;48.202;16.334;2024-03-07T11:53:06;99445.75;;;8.61;50.07
40155;BME280;25875;48.202;16.334;2024-03-07T11:55:33;99448.53;;;8.58;49.90
40155;BME280;25875;48.202;16.334;2024-03-07T11:58:07;99451.97;;;8.60;50.10
40155;BME280;25875;48.202;16.334;2024-03-07T12:00:35;99445.44;;;8.49;50.10
40155;BME280;25875;48.202;16.334;2024-03-07T12:03:02;99449.66;;;8.53;50.02
40155;BME280;25875;48.202;16.334;2024-03-07T12:05:32;99361.00;;;7.89;50.20
40155;BME280;25875;48.202;16.334;2024-03-07T12:07:59;99429.03;;;8.42;50.23
40155;BME280;25875;48.202;16.334;2024-03-07T12:10:26;99439.72;;;8.39;50.23
40155;BME280;25875;48.202;16.334;2024-03-07T12:12:53;99432.06;;;8.33;50.59
40155;BME280;25875;48.202;16.334;2024-03-07T12:15:21;99426.78;;;8.33;50.78
40155;BME280;25875;48.202;16.334;2024-03-07T12:17:51;99335.56;;;7.68;50.54
40155;BME280;25875;48.202;16.334;2024-03-07T12:20:19;99378.78;;;8.05;50.88
40155;BME280;25875;48.202;16.334;2024-03-07T12:22:55;99393.56;;;8.09;50.98
40155;BME280;25875;48.202;16.334;2024-03-07T12:25:23;99356.00;;;7.83;51.18
40155;BME280;25875;48.202;16.334;2024-03-07T12:28:01;99421.34;;;8.17;51.41
40155;BME280;25875;48.202;16.334;2024-03-07T12:30:32;99425.56;;;8.21;51.11
40155;BME280;25875;48.202;16.334;2024-03-07T12:33:01;99403.28;;;8.08;51.25
40155;BME280;25875;48.202;16.334;2024-03-07T12:35:30;99417.06;;;8.15;51.30
40155;BME280;25875;48.202;16.334;2024-03-07T12:37:58;99422.00;;;8.22;51.28
40155;BME280;25875;48.202;16.334;2024-03-07T12:40:25;99418.56;;;8.20;51.36
40155;BME280;25875;48.202;16.334;2024-03-07T12:42:55;99423.91;;;8.19;51.36
40155;BME280;25875;48.202;16.334;2024-03-07T12:45:22;99419.63;;;8.16;51.59
40155;BME280;25875;48.202;16.334;2024-03-07T12:47:48;99416.59;;;8.05;51.54
40155;BME280;25875;48.202;16.334;2024-03-07T12:50:21;99397.00;;;7.90;51.68
40155;BME280;25875;48.202;16.334;2024-03-07T12:52:48;99422.75;;;8.06;51.60
40155;BME280;25875;48.202;16.334;2024-03-07T12:55:16;99418.31;;;8.06;51.65
40155;BME280;25875;48.202;16.334;2024-03-07T12:57:47;99421.69;;;8.10;51.70
40155;BME280;25875;48.202;16.334;2024-03-07T13:00:16;99277.44;;;7.29;51.24
40155;BME280;25875;48.202;16.334;2024-03-07T13:02:46;99420.75;;;8.11;51.35
40155;BME280;25875;48.202;16.334;2024-03-07T13:05:13;99419.19;;;8.07;51.35